Time;durP1;ratioP1;P1;durP2;ratioP2;P2;SDS_P1;SDS_P2;PMS_P1;PMS_P2;Temp;Humidity;BMP_temperature;BMP_pressure;BME280_temperature;BME280_humidity;BME280_pressure;Samples;Min_cycle;Max_cycle;Signal;HPM_P1;HPM_P2
2022/04/04 00:00:46;;;;;;;30.20;13.40;;;;;;;-0.56;60.81;98950.41;106152;1274;111352;-65
2022/04/04 00:03:15;;;;;;;33.90;15.30;;;;;;;-0.52;60.73;98953.27;106135;1274;95155;-66
2022/04/04 00:05:48;;;;;;;32.00;13.30;;;;;;;-0.48;60.76;98949.83;106138;1274;107324;-65
2022/04/04 00:08:18;;;;;;;29.70;13.00;;;;;;;-0.45;60.78;98952.36;105985;1273;95194;-66
2022/04/04 00:10:51;;;;;;;31.10;14.00;;;;;;;-0.43;61.00;98957.71;106063;1273;97863;-67
2022/04/04 00:13:20;;;;;;;27.40;12.30;;;;;;;-0.44;60.78;98958.77;106067;1274;112069;-67
2022/04/04 00:15:51;;;;;;;30.80;14.60;;;;;;;-0.45;60.83;98958.44;106108;1274;97979;-68
2022/04/04 00:18:23;;;;;;;29.40;13.50;;;;;;;-0.43;60.78;98959.28;106057;1274;108385;-66
2022/04/04 00:20:56;;;;;;;31.10;14.30;;;;;;;-0.43;60.82;98958.21;106058;1274;98049;-66
2022/04/04 00:23:24;;;;;;;28.80;13.10;;;;;;;-0.41;60.79;98959.90;106168;1274;97844;-67
2022/04/04 00:25:52;;;;;;;30.40;13.80;;;;;;;-0.40;60.83;98962.31;106160;1274;112053;-65
2022/04/04 00:28:20;;;;;;;30.60;13.90;;;;;;;-0.38;60.73;98964.16;106112;1274;97740;-67
2022/04/04 00:30:50;;;;;;;29.10;14.60;;;;;;;-0.39;60.93;98965.92;106171;1274;106904;-65
2022/04/04 00:33:21;;;;;;;32.80;15.00;;;;;;;-0.38;60.93;98961.89;106065;1273;97986;-65
2022/04/04 00:35:53;;;;;;;28.00;13.70;;;;;;;-0.36;60.98;98959.04;106141;1274;97578;-65
2022/04/04 00:38:22;;;;;;;29.20;13.00;;;;;;;-0.35;60.89;98959.01;106176;1274;111756;-65
2022/04/04 00:40:52;;;;;;;28.60;12.90;;;;;;;-0.34;60.88;98957.25;106212;1271;97939;-65
2022/04/04 00:43:21;;;;;;;28.20;13.80;;;;;;;-0.34;60.85;98956.03;106132;1271;108051;-66
2022/04/04 00:45:52;;;;;;;27.70;12.80;;;;;;;-0.35;60.84;98956.05;106159;1271;97879;-65
2022/04/04 00:48:20;;;;;;;29.60;14.00;;;;;;;-0.34;60.94;98954.81;106148;1271;96539;-67
2022/04/04 00:50:47;;;;;;;30.90;13.30;;;;;;;-0.38;60.84;98954.58;106123;1271;111888;-67
2022/04/04 00:53:16;;;;;;;30.10;13.60;;;;;;;-0.39;60.81;98956.88;106171;1271;97959;-67
2022/04/04 00:55:45;;;;;;;31.00;13.60;;;;;;;-0.37;60.95;98957.88;106170;1271;108310;-66
2022/04/04 00:58:17;;;;;;;27.60;12.80;;;;;;;-0.36;60.95;98956.77;106107;1271;97950;-65
2022/04/04 01:00:48;;;;;;;29.70;13.90;;;;;;;-0.35;60.91;98953.63;106173;1274;97924;-65
2022/04/04 01:03:18;;;;;;;25.80;12.30;;;;;;;-0.33;60.82;98954.95;106115;1271;111987;-66
2022/04/04 01:05:50;;;;;;;31.70;12.70;;;;;;;-0.32;61.01;98959.45;106143;1271;98005;-65
2022/04/04 01:08:18;;;;;;;28.00;12.60;;;;;;;-0.32;60.87;98958.56;106073;1271;108126;-65
2022/04/04 01:10:48;;;;;;;24.90;12.80;;;;;;;-0.30;61.04;98962.89;106132;1271;97947;-65
2022/04/04 01:13:17;;;;;;;26.20;12.10;;;;;;;-0.28;60.87;98963.17;106155;1271;96577;-66
2022/04/04 01:15:46;;;;;;;27.10;11.70;;;;;;;-0.27;60.84;98965.77;106131;1271;112042;-65
2022/04/04 01:18:16;;;;;;;29.00;11.90;;;;;;;-0.26;60.97;98969.05;106216;1273;95582;-65
2022/04/04 01:20:44;;;;;;;25.20;12.50;;;;;;;-0.27;60.83;98971.16;106173;1274;108422;-67
2022/04/04 01:23:18;;;;;;;26.00;11.20;;;;;;;-0.28;60.90;98968.58;106094;1271;98044;-65
2022/04/04 01:25:47;;;;;;;26.60;10.70;;;;;;;-0.28;60.80;98969.79;106107;1274;97937;-66
2022/04/04 01:28:19;;;;;;;26.20;11.20;;;;;;;-0.28;60.69;98973.45;106129;1271;111985;-65
2022/04/04 01:30:51;;;;;;;25.70;12.10;;;;;;;-0.28;60.67;98968.76;106126;1271;98605;-66
2022/04/04 01:33:22;;;;;;;27.40;12.60;;;;;;;-0.27;60.84;98966.13;106182;1271;108524;-66
2022/04/04 01:35:57;;;;;;;25.90;10.50;;;;;;;-0.27;60.93;98964.90;106106;1271;97898;-65
2022/04/04 01:38:28;;;;;;;27.10;10.90;;;;;;;-0.28;60.58;98965.09;106141;1271;95256;-64
2022/04/04 01:40:56;;;;;;;28.10;11.00;;;;;;;-0.31;60.73;98962.90;106173;1271;111881;-68
2022/04/04 01:43:25;;;;;;;24.80;10.60;;;;;;;-0.33;60.70;98961.41;106212;1271;97885;-67
2022/04/04 01:48:42;;;;;;;29.30;12.00;;;;;;;-0.34;60.67;98958.64;106114;1274;95237;-66
2022/04/04 01:51:12;;;;;;;25.90;9.80;;;;;;;-0.33;60.83;98953.73;106159;1271;99178;-66
2022/04/04 01:53:42;;;;;;;24.40;9.90;;;;;;;-0.31;60.70;98958.02;106178;1271;111811;-68
2022/04/04 01:56:12;;;;;;;24.50;10.50;;;;;;;-0.30;60.64;98956.77;106131;1271;97943;-66
2022/04/04 01:58:42;;;;;;;23.30;10.60;;;;;;;-0.31;60.67;98960.63;106206;1271;108422;-66
2022/04/04 02:01:18;;;;;;;23.80;10.30;;;;;;;-0.29;60.66;98957.81;106190;1271;97879;-67
2022/04/04 02:03:51;;;;;;;26.00;10.90;;;;;;;-0.28;60.85;98959.16;106145;1271;97864;-64
2022/04/04 02:06:22;;;;;;;25.80;10.50;;;;;;;-0.25;60.86;98962.57;106169;1274;111257;-65
2022/04/04 02:08:52;;;;;;;23.10;9.50;;;;;;;-0.24;61.10;98962.36;106203;1274;97946;-65
2022/04/04 02:11:24;;;;;;;23.90;9.00;;;;;;;-0.23;60.83;98959.35;106146;1271;107331;-65
2022/04/04 02:13:55;;;;;;;24.00;10.00;;;;;;;-0.24;60.78;98956.80;106137;1271;97909;-66
2022/04/04 02:16:25;;;;;;;23.50;10.80;;;;;;;-0.25;60.57;98955.45;106158;1271;95277;-65
2022/04/04 02:18:53;;;;;;;24.80;10.30;;;;;;;-0.27;60.75;98952.16;106141;1271;110308;-65
2022/04/04 02:21:23;;;;;;;25.40;10.30;;;;;;;-0.28;60.77;98950.98;106195;1271;95228;-66
2022/04/04 02:23:52;;;;;;;22.20;9.50;;;;;;;-0.27;60.73;98952.33;106134;1271;108596;-65
2022/04/04 02:26:22;;;;;;;21.90;9.60;;;;;;;-0.23;60.87;98952.77;106184;1271;95294;-65
2022/04/04 02:28:51;;;;;;;25.50;9.20;;;;;;;-0.23;60.85;98954.48;106195;1274;97809;-66
2022/04/04 02:31:19;;;;;;;23.60;9.40;;;;;;;-0.25;60.86;98951.59;106210;1274;111664;-66
2022/04/04 02:33:47;;;;;;;23.40;9.70;;;;;;;-0.26;60.95;98953.68;106149;1271;97870;-66
2022/04/04 02:36:15;;;;;;;24.20;9.60;;;;;;;-0.24;60.89;98953.82;106186;1271;108312;-65
2022/04/04 02:38:48;;;;;;;23.10;9.10;;;;;;;-0.23;60.88;98951.02;106187;1270;97946;-67
2022/04/04 02:41:16;;;;;;;24.60;9.80;;;;;;;-0.24;60.57;98954.17;106135;1271;97745;-67
2022/04/04 02:43:47;;;;;;;23.30;9.40;;;;;;;-0.26;60.74;98951.27;106142;1271;111919;-67
2022/04/04 02:46:15;;;;;;;22.50;9.70;;;;;;;-0.24;60.80;98954.55;106082;1271;98039;-68
2022/04/04 02:48:48;;;;;;;;;;;;;;;-0.26;60.71;98952.99;106186;1271;108560;-66
2022/04/04 02:51:18;;;;;;;22.00;8.50;;;;;;;-0.29;60.65;98948.23;106130;1271;97893;-66
2022/04/04 02:53:49;;;;;;;22.20;10.00;;;;;;;-0.31;61.01;98950.52;106136;1271;97968;-67
2022/04/04 02:56:29;;;;;;;22.50;8.90;;;;;;;-0.29;60.80;98945.62;106139;1271;112048;-69
2022/04/04 02:59:03;;;;;;;24.90;9.70;;;;;;;-0.28;60.77;98945.42;106186;1271;98057;-70
2022/04/04 03:01:31;;;;;;;21.70;8.60;;;;;;;-0.27;60.81;98941.89;106135;1271;108281;-72
2022/04/04 03:04:04;;;;;;;20.80;8.20;;;;;;;-0.26;60.70;98942.55;106065;1273;97876;-66
2022/04/04 03:06:32;;;;;;;20.20;8.50;;;;;;;-0.25;60.70;98944.09;106144;1274;97883;-66
2022/04/04 03:09:00;;;;;;;19.40;8.20;;;;;;;-0.25;60.79;98943.91;106134;1271;111086;-67
2022/04/04 03:11:28;;;;;;;21.70;8.90;;;;;;;-0.25;60.70;98942.00;106197;1274;97849;-65
2022/04/04 03:13:59;;;;;;;21.30;8.40;;;;;;;-0.25;60.55;98943.73;106174;1274;108535;-65
2022/04/04 03:16:26;;;;;;;23.10;9.30;;;;;;;-0.25;60.66;98943.39;106179;1274;97917;-66
2022/04/04 03:18:58;;;;;;;23.00;8.10;;;;;;;-0.26;60.49;98938.90;106237;1274;97944;-66
2022/04/04 03:21:29;;;;;;;19.70;8.40;;;;;;;-0.27;60.72;98940.15;106137;1273;111489;-67
2022/04/04 03:24:00;;;;;;;23.10;9.00;;;;;;;-0.26;60.52;98942.05;106159;1271;98097;-66
2022/04/04 03:26:31;;;;;;;23.30;7.50;;;;;;;-0.26;60.75;98941.70;106156;1271;107351;-67
2022/04/04 03:29:04;;;;;;;19.30;7.30;;;;;;;-0.26;60.53;98940.30;106101;1270;98418;-66
2022/04/04 03:31:33;;;;;;;20.10;7.50;;;;;;;-0.26;60.68;98940.29;106150;1271;98067;-66
2022/04/04 03:34:03;;;;;;;19.10;7.80;;;;;;;-0.26;60.45;98940.81;106239;1271;111928;-70
2022/04/04 03:36:35;;;;;;;20.10;8.00;;;;;;;-0.27;60.70;98945.54;106184;1274;97879;-66
2022/04/04 03:39:05;;;;;;;21.00;8.60;;;;;;;-0.26;60.65;98949.88;105574;1271;751221;-67
2022/04/04 03:41:37;;;;;;;18.50;7.10;;;;;;;-0.28;60.54;98948.55;106129;1271;97876;-66
2022/04/04 03:44:06;;;;;;;17.80;7.50;;;;;;;-0.30;60.66;98948.76;106155;1271;97851;-67
2022/04/04 03:46:34;;;;;;;18.70;7.60;;;;;;;-0.31;60.73;98947.38;106162;1271;111973;-67
2022/04/04 03:49:06;;;;;;;17.80;6.90;;;;;;;-0.30;60.66;98946.69;106125;1271;97889;-67
2022/04/04 03:51:34;;;;;;;18.10;7.30;;;;;;;-0.30;60.34;98950.88;106131;1271;108419;-66
2022/04/04 03:54:04;;;;;;;18.30;6.90;;;;;;;-0.32;60.54;98944.63;106151;1271;97884;-68
2022/04/04 03:56:34;;;;;;;16.60;6.90;;;;;;;-0.33;60.50;98947.10;106160;1271;97853;-67
2022/04/04 03:59:05;;;;;;;18.80;7.30;;;;;;;-0.32;60.64;98947.77;106156;1271;111407;-67
2022/04/04 04:01:35;;;;;;;20.20;7.40;;;;;;;-0.32;60.67;98952.31;106173;1271;95665;-68
2022/04/04 04:04:05;;;;;;;19.90;7.30;;;;;;;-0.33;60.56;98952.50;106133;1271;108321;-68
2022/04/04 04:06:33;;;;;;;19.30;6.90;;;;;;;-0.31;60.57;98956.65;106197;1271;95280;-69
2022/04/04 04:09:03;;;;;;;18.30;6.90;;;;;;;-0.30;60.47;98957.85;106221;1271;97956;-67
2022/04/04 04:11:31;;;;;;;18.80;6.50;;;;;;;-0.31;60.61;98960.11;106176;1271;111975;-66
2022/04/04 04:14:00;;;;;;;19.20;6.30;;;;;;;-0.31;60.63;98958.39;106225;1271;96289;-67
2022/04/04 04:16:31;;;;;;;18.20;7.70;;;;;;;-0.31;60.54;98961.70;106101;1271;108146;-70
2022/04/04 04:18:59;;;;;;;18.10;7.00;;;;;;;-0.31;60.36;98961.50;106114;1271;96972;-68
2022/04/04 04:21:29;;;;;;;17.40;6.20;;;;;;;-0.29;60.55;98957.10;106139;1271;95188;-66
2022/04/04 04:23:59;;;;;;;15.60;6.30;;;;;;;-0.27;60.52;98958.44;106087;1271;112256;-66
2022/04/04 04:26:30;;;;;;;17.70;6.60;;;;;;;-0.26;60.51;98958.25;106112;1271;96414;-66
2022/04/04 04:28:59;;;;;;;19.20;6.80;;;;;;;-0.24;60.34;98954.53;106102;1271;108493;-67
2022/04/04 04:31:26;;;;;;;20.60;7.20;;;;;;;-0.22;60.35;98953.92;106134;1271;95359;-66
2022/04/04 04:33:54;;;;;;;18.60;6.80;;;;;;;-0.20;60.41;98952.64;106103;1274;97865;-66
2022/04/04 04:36:23;;;;;;;18.10;7.20;;;;;;;-0.20;60.42;98953.85;106043;1274;111652;-66
2022/04/04 04:38:53;;;;;;;18.20;6.40;;;;;;;-0.20;60.45;98952.29;106090;1271;97694;-67
2022/04/04 04:41:22;;;;;;;20.10;7.10;;;;;;;-0.19;60.36;98951.55;106145;1271;108082;-67
2022/04/04 04:43:51;;;;;;;19.90;7.60;;;;;;;-0.18;60.48;98949.27;106115;1274;95351;-66
2022/04/04 04:46:19;;;;;;;20.50;7.80;;;;;;;-0.17;60.21;98950.81;106151;1271;97990;-66
2022/04/04 04:48:47;;;;;;;18.60;6.90;;;;;;;-0.15;60.31;98951.45;106093;1271;112155;-67
2022/04/04 04:51:17;;;;;;;16.70;6.40;;;;;;;-0.14;60.28;98953.16;106144;1274;97988;-68
2022/04/04 04:53:49;;;;;;;22.40;7.10;;;;;;;-0.14;60.43;98958.05;106202;1274;108218;-69
2022/04/04 04:56:21;;;;;;;20.90;7.40;;;;;;;-0.14;60.41;98955.77;106160;1274;96726;-66
2022/04/04 04:58:59;;;;;;;19.90;7.40;;;;;;;-0.12;60.31;98960.46;106197;1274;97853;-66
2022/04/04 05:01:27;;;;;;;20.00;7.40;;;;;;;-0.13;60.29;98960.47;106083;1271;111793;-67
2022/04/04 05:03:55;;;;;;;18.70;7.30;;;;;;;-0.13;60.07;98959.96;106200;1271;97777;-68
2022/04/04 05:06:24;;;;;;;20.70;7.60;;;;;;;-0.14;60.20;98959.61;106091;1271;108408;-68
2022/04/04 05:08:59;;;;;;;20.00;7.40;;;;;;;-0.13;60.26;98960.63;106089;1270;97956;-66
2022/04/04 05:11:29;;;;;;;19.30;7.50;;;;;;;-0.14;60.18;98961.38;106132;1271;95184;-66
2022/04/04 05:13:59;;;;;;;21.30;7.90;;;;;;;-0.15;60.31;98958.08;106099;1271;112058;-68
2022/04/04 05:16:30;;;;;;;19.60;7.30;;;;;;;-0.16;60.22;98964.02;106084;1271;97651;-67
2022/04/04 05:19:00;;;;;;;20.80;9.20;;;;;;;-0.18;59.99;98963.90;106182;1271;108324;-67
2022/04/04 05:21:29;;;;;;;20.40;7.00;;;;;;;-0.18;60.22;98965.30;106178;1271;97872;-65
2022/04/04 05:24:02;;;;;;;19.40;7.50;;;;;;;-0.19;60.06;98961.48;106112;1271;98983;-66
2022/04/04 05:26:30;;;;;;;19.00;7.50;;;;;;;-0.19;60.11;98961.84;106102;1271;113109;-66
2022/04/04 05:29:04;;;;;;;20.20;7.30;;;;;;;-0.18;60.07;98959.89;106138;1271;95252;-67
2022/04/04 05:31:36;;;;;;;21.20;7.50;;;;;;;-0.16;60.13;98960.36;106045;1271;108414;-67
2022/04/04 05:34:07;;;;;;;19.10;7.50;;;;;;;-0.12;60.10;98961.28;106079;1271;97841;-68
2022/04/04 05:36:35;;;;;;;23.60;7.70;;;;;;;-0.07;60.07;98964.27;106143;1271;97866;-67
2022/04/04 05:39:06;;;;;;;22.10;7.10;;;;;;;-0.02;59.89;98964.13;106115;1271;112010;-67
2022/04/04 05:41:36;;;;;;;20.20;7.90;;;;;;;0.03;60.11;98963.80;106142;1271;97947;-65
2022/04/04 05:44:08;;;;;;;19.00;8.10;;;;;;;0.07;60.00;98961.06;106044;1271;108313;-66
2022/04/04 05:46:36;;;;;;;18.30;7.20;;;;;;;0.10;60.06;98960.80;106002;1271;98661;-66
2022/04/04 05:49:05;;;;;;;18.20;7.40;;;;;;;0.13;60.09;98957.75;106110;1271;95248;-67
2022/04/04 05:51:34;;;;;;;18.80;7.90;;;;;;;0.17;60.02;98954.47;106042;1271;111962;-67
2022/04/04 05:54:24;;;;;;;17.50;7.10;;;;;;;0.22;59.96;98954.30;106052;1271;96510;-66
2022/04/04 05:56:54;;;;;;;18.20;6.60;;;;;;;0.27;59.99;98956.77;106057;1271;108401;-66
2022/04/04 05:59:27;;;;;;;18.40;7.10;;;;;;;0.32;59.95;98953.98;106104;1271;97933;-68
2022/04/04 06:01:55;;;;;;;18.90;6.40;;;;;;;0.37;59.80;98955.94;106136;1271;97003;-68
2022/04/04 06:04:28;;;;;;;16.80;6.60;;;;;;;0.41;59.94;98958.41;106140;1271;111878;-68
2022/04/04 06:06:56;;;;;;;17.60;6.70;;;;;;;0.47;59.66;98958.05;106062;1271;97970;-68
2022/04/04 06:09:26;;;;;;;16.30;6.40;;;;;;;0.50;59.78;98955.50;106128;1271;108159;-67
2022/04/04 06:11:55;;;;;;;17.50;6.90;;;;;;;0.52;59.70;98958.39;106136;1271;97886;-68
2022/04/04 06:14:24;;;;;;;17.90;6.80;;;;;;;0.56;59.64;98963.34;106134;1271;97828;-68
2022/04/04 06:16:52;;;;;;;18.70;7.20;;;;;;;0.56;59.62;98962.27;106139;1271;112011;-68
2022/04/04 06:19:20;;;;;;;18.70;6.60;;;;;;;0.61;59.50;98961.60;106171;1271;97962;-69
2022/04/04 06:21:49;;;;;;;16.80;5.80;;;;;;;0.67;59.70;98966.45;106113;1271;108956;-69
2022/04/04 06:24:17;;;;;;;17.40;6.50;;;;;;;0.75;59.76;98963.59;106075;1271;97972;-68
2022/04/04 06:26:46;;;;;;;14.20;5.50;;;;;;;0.83;59.67;98964.17;106078;1271;96606;-69
2022/04/04 06:29:15;;;;;;;13.40;5.60;;;;;;;0.91;59.74;98963.73;106173;1271;112086;-67
2022/04/04 06:31:51;;;;;;;16.00;6.10;;;;;;;0.98;59.36;98963.81;106157;1271;96461;-66
2022/04/04 06:34:25;;;;;;;16.90;6.10;;;;;;;1.06;59.52;98961.63;106132;1271;107695;-67
2022/04/04 06:36:53;;;;;;;15.30;5.70;;;;;;;1.11;59.48;98958.84;106088;1271;95277;-68
2022/04/04 06:39:21;;;;;;;15.30;5.90;;;;;;;1.19;58.80;98956.48;106169;1271;96320;-67
2022/04/04 06:41:50;;;;;;;15.50;6.20;;;;;;;1.27;58.90;98955.98;106213;1271;111997;-66
2022/04/04 06:44:20;;;;;;;14.60;6.00;;;;;;;1.35;58.08;98952.55;106103;1274;97965;-65
2022/04/04 06:46:56;;;;;;;13.90;5.70;;;;;;;1.39;58.93;98949.95;106034;1274;108390;-68
2022/04/04 06:49:27;;;;;;;14.40;5.40;;;;;;;1.40;58.93;98946.78;106131;1271;97860;-67
2022/04/04 06:51:56;;;;;;;15.10;5.20;;;;;;;1.42;58.60;98943.91;106182;1271;97841;-68
2022/04/04 06:54:27;;;;;;;13.70;5.60;;;;;;;1.44;58.50;98942.43;106158;1270;111560;-70
2022/04/04 06:56:59;;;;;;;12.30;5.10;;;;;;;1.46;58.40;98938.52;106232;1271;95347;-68
2022/04/04 06:59:30;;;;;;;16.00;5.40;;;;;;;1.49;58.11;98940.15;106101;1274;108353;-66
2022/04/04 07:01:58;;;;;;;13.40;5.40;;;;;;;1.52;58.54;98940.39;106223;1271;97867;-71
2022/04/04 07:04:28;;;;;;;13.00;5.60;;;;;;;1.56;58.03;98942.16;106130;1271;97854;-66
2022/04/04 07:07:00;;;;;;;13.90;5.10;;;;;;;1.63;58.40;98938.07;106162;1274;110958;-68
2022/04/04 07:09:29;;;;;;;15.20;6.50;;;;;;;1.69;58.16;98935.73;106193;1274;96965;-68
2022/04/04 07:11:58;;;;;;;15.60;5.40;;;;;;;1.77;58.48;98935.61;106182;1271;107062;-68
2022/04/04 07:14:31;;;;;;;15.60;5.20;;;;;;;1.82;57.83;98931.92;106133;1271;98469;-67
2022/04/04 07:17:01;;;;;;;15.20;5.70;;;;;;;1.87;58.23;98936.77;106072;1271;96311;-68
2022/04/04 07:19:33;;;;;;;14.80;5.10;;;;;;;1.94;57.75;98938.63;106173;1273;110385;-67
2022/04/04 07:22:03;;;;;;;13.50;4.80;;;;;;;2.00;57.51;98941.54;106215;1271;97872;-65
2022/04/04 07:24:31;;;;;;;14.50;5.20;;;;;;;2.05;56.75;98940.27;106142;1271;108404;-65
2022/04/04 07:27:00;;;;;;;14.70;5.70;;;;;;;2.11;57.41;98939.86;106191;1271;97464;-66
2022/04/04 07:29:32;;;;;;;11.50;4.70;;;;;;;2.90;56.89;98937.08;106191;1271;97882;-67
2022/04/04 07:32:00;;;;;;;13.90;5.50;;;;;;;5.01;58.04;98929.93;106179;1271;112037;-68
2022/04/04 07:34:30;;;;;;;11.50;4.50;;;;;;;7.08;57.83;98928.66;106196;1271;97894;-67
2022/04/04 07:36:59;;;;;;;12.70;4.80;;;;;;;8.61;57.92;98924.75;106189;1271;108330;-68
2022/04/04 07:39:28;;;;;;;11.50;4.40;;;;;;;9.89;56.28;98920.38;106164;1271;97946;-65
2022/04/04 07:41:57;;;;;;;9.80;4.40;;;;;;;10.95;53.29;98917.04;106163;1274;95401;-67
2022/04/04 07:44:27;;;;;;;11.00;4.70;;;;;;;11.62;56.09;98916.81;106087;1274;112017;-67
2022/04/04 07:46:55;;;;;;;11.40;4.50;;;;;;;12.41;53.60;98909.47;106122;1271;97867;-66
2022/04/04 07:49:23;;;;;;;11.20;4.60;;;;;;;12.98;53.39;98913.55;106107;1271;108378;-66
2022/04/04 07:51:53;;;;;;;14.10;4.90;;;;;;;13.31;54.16;98911.00;106171;1274;96340;-67
2022/04/04 07:54:25;;;;;;;9.50;4.50;;;;;;;14.11;56.69;98911.64;106175;1274;96329;-68
2022/04/04 07:56:56;;;;;;;8.00;4.20;;;;;;;15.01;57.17;98906.36;106118;1274;111946;-67
2022/04/04 07:59:26;;;;;;;9.30;4.40;;;;;;;15.50;47.70;98902.96;106129;1271;95258;-70
2022/04/04 08:01:56;;;;;;;11.20;4.30;;;;;;;15.46;53.21;98903.08;106136;1274;108249;-65
2022/04/04 08:04:27;;;;;;;10.90;4.60;;;;;;;15.40;53.60;98903.58;106124;1271;97965;-65
2022/04/04 08:06:57;;;;;;;9.80;3.90;;;;;;;15.40;51.75;98907.18;106144;1271;99324;-68
2022/04/04 08:09:28;;;;;;;8.80;4.10;;;;;;;15.23;53.20;98908.50;106144;1271;112171;-68
2022/04/04 08:11:59;;;;;;;10.40;3.70;;;;;;;15.40;54.54;98903.30;106122;1271;97075;-68
2022/04/04 08:14:27;;;;;;;10.00;4.10;;;;;;;15.79;52.32;98898.83;106154;1271;108378;-65
2022/04/04 08:16:57;;;;;;;10.40;4.30;;;;;;;15.95;53.22;98899.13;106122;1273;96467;-67
2022/04/04 08:19:29;;;;;;;10.00;4.20;;;;;;;16.28;54.61;98898.22;106155;1274;97944;-66
2022/04/04 08:21:59;;;;;;;9.50;4.10;;;;;;;16.76;52.43;98896.96;106042;1274;111882;-66
2022/04/04 08:24:30;;;;;;;10.70;4.50;;;;;;;16.83;50.61;98898.27;106092;1271;96447;-68
2022/04/04 08:26:59;;;;;;;10.20;4.30;;;;;;;16.85;51.88;98894.00;106157;1271;108007;-68
2022/04/04 08:29:26;;;;;;;9.90;4.40;;;;;;;17.11;51.89;98897.95;106092;1275;97829;-68
2022/04/04 08:31:57;;;;;;;9.50;4.50;;;;;;;17.03;48.11;98888.55;106136;1271;97880;-68
2022/04/04 08:34:28;;;;;;;5.50;3.10;;;;;;;16.93;51.00;98888.21;106177;1271;112069;-71
2022/04/04 08:37:01;;;;;;;7.80;3.90;;;;;;;16.89;49.32;98888.67;106187;1271;97956;-68
2022/04/04 08:39:31;;;;;;;7.10;3.90;;;;;;;16.66;48.00;98886.88;106061;1274;107734;-66
2022/04/04 08:42:03;;;;;;;11.20;3.70;;;;;;;16.51;47.67;98887.85;106107;1271;96409;-67
2022/04/04 08:44:37;;;;;;;8.10;4.20;;;;;;;16.07;44.22;98886.60;106172;1272;97858;-65
2022/04/04 08:47:07;;;;;;;8.20;4.10;;;;;;;16.02;44.35;98881.62;106115;1271;111406;-68
2022/04/04 08:49:37;;;;;;;8.60;3.80;;;;;;;16.18;43.34;98880.02;106152;1271;95165;-67
2022/04/04 08:52:07;;;;;;;7.80;4.10;;;;;;;16.19;46.41;98875.28;106118;1271;108950;-65
2022/04/04 08:54:35;;;;;;;8.50;4.10;;;;;;;16.03;43.77;98879.70;106044;1271;98565;-66
2022/04/04 08:57:03;;;;;;;8.30;4.20;;;;;;;15.73;43.04;98876.20;106144;1271;97981;-68
2022/04/04 08:59:31;;;;;;;7.90;3.80;;;;;;;15.56;43.63;98868.79;106059;1271;112007;-67
2022/04/04 09:02:01;;;;;;;8.00;4.00;;;;;;;15.59;42.80;98870.68;106064;1272;97974;-67
2022/04/04 09:04:32;;;;;;;11.80;4.50;;;;;;;15.59;41.61;98863.01;106072;1271;108091;-67
2022/04/04 09:07:10;;;;;;;7.00;4.10;;;;;;;15.42;41.49;98862.49;106051;1271;99000;-68
2022/04/04 09:09:42;;;;;;;8.30;4.00;;;;;;;15.44;41.62;98861.22;106108;1271;97900;-68
2022/04/04 09:12:19;;;;;;;8.50;4.10;;;;;;;15.47;40.02;98858.30;106055;1271;111923;-67
2022/04/04 09:14:51;;;;;;;8.10;4.10;;;;;;;15.38;39.18;98847.00;106119;1272;97962;-69
2022/04/04 09:17:27;;;;;;;7.70;3.70;;;;;;;15.02;37.73;98846.09;106042;1274;107705;-68
2022/04/04 09:20:03;;;;;;;9.70;4.50;;;;;;;14.63;39.69;98847.52;106225;1271;97838;-66
2022/04/04 09:22:31;;;;;;;10.60;4.10;;;;;;;14.52;38.77;98842.64;106090;1271;95196;-67
2022/04/04 09:25:02;;;;;;;9.70;3.90;;;;;;;14.40;39.36;98839.14;106149;1271;112085;-66
2022/04/04 09:27:37;;;;;;;8.90;4.40;;;;;;;14.44;38.79;98839.83;106069;1271;96650;-67
2022/04/04 09:30:22;;;;;;;8.20;3.90;;;;;;;14.22;37.67;98832.91;106078;1271;107621;-70
2022/04/04 09:32:51;;;;;;;8.20;4.20;;;;;;;13.56;38.33;98831.32;106069;1271;97856;-68
2022/04/04 09:35:21;;;;;;;10.70;3.90;;;;;;;13.16;36.63;98831.29;106074;1271;97784;-67
2022/04/04 09:37:53;;;;;;;10.10;4.20;;;;;;;12.61;36.83;98825.10;106095;1271;113450;-68
2022/04/04 09:40:25;;;;;;;9.10;4.00;;;;;;;12.34;38.41;98822.86;106127;1271;97920;-65
2022/04/04 09:42:52;;;;;;;8.20;4.30;;;;;;;12.45;38.15;98822.02;106165;1271;107692;-67
2022/04/04 09:45:28;;;;;;;5.90;3.60;;;;;;;12.36;38.13;98820.60;106186;1271;97961;-67
2022/04/04 09:48:02;;;;;;;8.30;4.30;;;;;;;11.84;35.48;98813.09;106212;1271;97856;-68
2022/04/04 09:50:45;;;;;;;12.50;5.10;;;;;;;11.15;35.25;98808.27;106033;1274;112054;-67
2022/04/04 09:53:19;;;;;;;10.20;4.40;;;;;;;10.31;36.08;98813.15;106247;1271;97981;-67
2022/04/04 09:55:52;;;;;;;10.30;4.90;;;;;;;9.77;37.06;98812.67;106040;1274;108183;-68
2022/04/04 09:58:31;;;;;;;11.60;4.60;;;;;;;9.40;36.56;98809.52;106076;1271;97960;-67
2022/04/04 10:01:01;;;;;;;8.50;4.10;;;;;;;9.02;36.76;98807.22;106061;1271;95279;-66
2022/04/04 10:03:33;;;;;;;11.20;4.20;;;;;;;8.76;36.73;98801.93;106037;1274;111477;-68
2022/04/04 10:06:09;;;;;;;9.80;4.30;;;;;;;8.59;36.61;98802.41;106043;1274;97950;-65
2022/04/04 10:08:39;;;;;;;10.80;4.00;;;;;;;8.52;37.13;98800.09;106059;1271;106456;-66
2022/04/04 10:11:10;;;;;;;12.70;5.10;;;;;;;8.45;36.39;98797.34;106052;1271;97966;-67
2022/04/04 10:13:39;;;;;;;13.00;4.80;;;;;;;8.31;36.52;98786.80;106109;1271;95896;-66
2022/04/04 10:16:09;;;;;;;12.90;4.80;;;;;;;8.26;36.20;98798.27;106020;1274;112019;-66
2022/04/04 10:18:43;;;;;;;11.80;5.30;;;;;;;8.24;36.34;98794.17;106080;1271;97933;-66
2022/04/04 10:21:14;;;;;;;12.30;4.70;;;;;;;8.27;36.02;98791.48;106066;1274;108384;-67
2022/04/04 10:23:47;;;;;;;10.20;4.50;;;;;;;8.13;36.17;98784.80;106056;1274;97963;-66
2022/04/04 10:26:21;;;;;;;12.50;4.90;;;;;;;8.11;36.27;98785.11;106163;1271;97970;-67
2022/04/04 10:29:05;;;;;;;12.90;5.00;;;;;;;8.12;36.17;98785.91;106145;1271;111513;-66
2022/04/04 10:31:43;;;;;;;12.60;5.30;;;;;;;8.02;36.22;98774.06;106166;1271;97928;-66
2022/04/04 10:34:24;;;;;;;10.50;5.00;;;;;;;7.90;36.23;98772.02;106118;1271;107846;-66
2022/04/04 10:37:08;;;;;;;12.80;5.20;;;;;;;7.80;36.01;98771.23;106063;1271;98605;-68
2022/04/04 10:39:39;;;;;;;12.80;5.00;;;;;;;7.73;36.43;98768.51;106130;1271;97912;-67
2022/04/04 10:42:43;;;;;;;8.90;4.40;;;;;;;7.88;36.40;98765.27;106094;1271;111858;-68
2022/04/04 10:45:16;;;;;;;13.60;4.90;;;;;;;8.15;36.39;98756.20;105910;1277;97857;-65
2022/04/04 10:47:47;;;;;;;12.20;4.80;;;;;;;8.34;36.64;98748.59;106002;1274;107397;-68
2022/04/04 10:50:30;;;;;;;13.20;5.50;;;;;;;8.57;36.65;98750.23;106060;1271;98665;-69
2022/04/04 10:53:01;;;;;;;12.90;5.00;;;;;;;8.57;36.10;98751.77;106090;1271;97891;-66
2022/04/04 10:55:42;;;;;;;13.50;5.00;;;;;;;8.20;35.34;98748.98;106195;1271;111465;-66
2022/04/04 10:58:14;;;;;;;15.70;5.40;;;;;;;7.86;35.92;98744.58;106092;1269;96693;-67
2022/04/04 11:01:01;;;;;;;10.20;4.80;;;;;;;7.81;36.96;98745.05;106102;1271;108212;-68
2022/04/04 11:03:38;;;;;;;11.40;5.10;;;;;;;7.85;36.62;98750.60;106064;1274;97953;-70
2022/04/04 11:09:14;;;;;;;29.50;15.90;;;;;;;7.67;37.00;98735.58;106203;1274;111748;-67
2022/04/04 11:11:55;;;;;;;15.50;5.30;;;;;;;7.65;36.93;98734.64;106247;1271;97892;-66
2022/04/04 11:14:33;;;;;;;10.40;5.00;;;;;;;7.71;36.90;98738.66;106111;1274;107614;-67
2022/04/04 11:17:06;;;;;;;10.40;5.30;;;;;;;7.65;36.40;98736.03;106059;1271;97967;-66
2022/04/04 11:19:46;;;;;;;9.50;4.30;;;;;;;7.61;36.96;98735.45;106124;1271;97940;-66
2022/04/04 11:22:26;;;;;;;13.40;5.10;;;;;;;7.56;36.56;98729.37;106130;1271;112346;-67
2022/04/04 11:24:54;;;;;;;13.60;5.30;;;;;;;7.52;37.09;98721.22;106073;1271;97903;-67
2022/04/04 11:27:28;;;;;;;10.90;4.60;;;;;;;7.52;36.58;98717.73;106150;1274;106712;-66
2022/04/04 11:30:00;;;;;;;10.50;4.80;;;;;;;7.44;37.01;98719.42;106124;1271;96339;-63
2022/04/04 11:32:33;;;;;;;10.40;4.40;;;;;;;7.35;37.10;98711.00;106180;1271;96836;-67
2022/04/04 11:35:10;;;;;;;10.40;4.80;;;;;;;7.27;37.00;98707.49;106130;1271;111124;-66
2022/04/04 11:37:50;;;;;;;14.30;4.80;;;;;;;7.23;37.11;98709.16;106176;1271;97821;-67
2022/04/04 11:40:29;;;;;;;10.50;4.90;;;;;;;7.24;36.57;98699.70;106082;1274;108388;-66